Main page
METAR-TAF:

METAR-TAF

Airports :

Srinagar International Airport

Srinagar, India

latitude: 33-59-14N, longitude: 074-46-27E, elevation: 1655 m

Current weather observation

The report was made 19 hours and 25 minutes ago, at 12:00 UTC
Wind 1 kt from variable directions
Temperature 6°C
Humidity 65%
Pressure 1021 hPa
Visibility: 1500 m
Few clouds at a height of 10000 ft
Scattered clouds at a height of 20000 ft
smoke

METAR: VISR 071200Z VRB01KT 1500 FU FEW100 SCT200 06/00 Q1021 NOSIG

Time: 12:55 (07:25 UTC)

Forecast

The report was made 3 hours and 55 minutes ago, at 03:30 UTC
Forecast valid from 08 at 06 UTC to 08 at 18 UTC
Wind 2 kt from variable directions
Visibility: 2000 m
Broken clouds at a height of 20000 ft
smoke
Becoming
from 08 at 08 UTC to 08 at 09 UTC
Visibility: 1800 m
Few clouds at a height of 10000 ft
Broken clouds at a height of 20000 ft
smoke

TAF: VISR 080330Z 0806/0818 VRB02KT 2000 FU BKN200 BECMG 0808/0809 1800 FU FEW100 BKN200

Weather observations and forecasts of more than 4000 airports (METAR and TAF reports).

The available stations are represented by yellow and red dots on the map.

Hover mouse over dot to see the name of the station.

Then click to see weather observations and forecasts.

To change the map : click on the green buttons with a black cross to zoom in, on the green button with a dash to zoom out, or on the green arrows for adjacent maps.


METAR-TAF: